Time;durP1;ratioP1;P1;durP2;ratioP2;P2;SDS_P1;SDS_P2;PMS_P1;PMS_P2;Temp;Humidity;BMP_temperature;BMP_pressure;BME280_temperature;BME280_humidity;BME280_pressure;Samples;Min_cycle;Max_cycle;Signal;HPM_P1;HPM_P2
2021/12/24 00:01:18;;;;;;;20.20;3.10;;;24.40;71.20;;;;;;5034471;28;20975;-64
2021/12/24 00:03:44;;;;;;;22.27;3.30;;;23.50;59.70;;;;;;5034130;28;20095;-63
2021/12/24 00:06:12;;;;;;;29.70;3.30;;;24.10;58.90;;;;;;5034281;28;20104;-65
2021/12/24 00:08:39;;;;;;;22.88;3.20;;;23.70;35.20;;;;;;5050966;28;20049;-64
2021/12/24 00:11:07;;;;;;;22.98;2.90;;;23.60;57.40;;;;;;5061533;28;20077;-64
2021/12/24 00:13:40;;;;;;;19.92;3.30;;;23.70;55.70;;;;;;5058651;28;20496;-69
2021/12/24 00:16:31;;;;;;;14.82;2.70;;;24.00;55.10;;;;;;5050554;28;20069;-68
2021/12/24 00:19:15;;;;;;;23.45;3.50;;;23.80;56.30;;;;;;5051463;28;20108;-69
2021/12/24 00:35:29;;;;;;;27.10;3.45;;;23.20;35.60;;;;;;5049804;28;20136;-61
2021/12/24 00:38:01;;;;;;;25.83;3.80;;;23.20;36.00;;;;;;5049743;28;20493;-59
2021/12/24 00:40:28;;;;;;;27.25;3.63;;;22.80;55.90;;;;;;5050428;28;20544;-58
2021/12/24 00:42:56;;;;;;;26.92;3.60;;;23.40;57.90;;;;;;5050861;28;20100;-60
2021/12/24 00:45:32;;;;;;;22.55;3.78;;;22.70;54.00;;;;;;5049532;28;20144;-59
2021/12/24 00:48:00;;;;;;;28.85;4.85;;;23.00;36.60;;;;;;5049739;28;20059;-59
2021/12/24 00:50:30;;;;;;;38.55;4.68;;;22.60;57.10;;;;;;5015091;28;20623;-60
2021/12/24 00:55:02;;;;;;;28.25;5.40;;;22.80;37.30;;;;;;5048964;28;20664;-60
2021/12/24 00:55:50;;;;;;;23.20;6.30;;;22.70;37.40;;;;;;5050752;28;20100;-60
2021/12/24 00:58:17;;;;;;;34.63;6.50;;;22.70;55.70;;;;;;5032626;28;20521;-57
2021/12/24 01:00:43;;;;;;;24.65;5.60;;;22.80;57.00;;;;;;5048851;28;20073;-58
2021/12/24 01:03:12;;;;;;;35.03;6.15;;;22.80;59.20;;;;;;5050167;28;20167;-58
2021/12/24 01:05:40;;;;;;;23.13;6.15;;;22.40;51.90;;;;;;5049129;28;20068;-59
2021/12/24 01:08:08;;;;;;;20.30;6.15;;;22.30;56.70;;;;;;5032593;28;20433;-72
2021/12/24 01:10:42;;;;;;;36.15;6.68;;;22.40;56.30;;;;;;5085063;22;20115;-62
2021/12/24 01:13:09;;;;;;;30.02;6.55;;;22.30;57.40;;;;;;5091038;28;20072;-62
2021/12/24 01:15:41;;;;;;;23.33;6.72;;;22.50;55.20;;;;;;5089131;28;20529;-63
2021/12/24 01:18:23;;;;;;;35.42;6.53;;;22.50;43.20;;;;;;5073732;28;20611;-63
2021/12/24 01:20:58;;;;;;;32.90;7.15;;;22.40;59.90;;;;;;5073257;28;20066;-64
2021/12/24 01:23:44;;;;;;;26.27;6.57;;;;;;;;;;5073357;28;20163;-64
2021/12/24 01:26:17;;;;;;;29.67;6.78;;;22.30;57.40;;;;;;5088581;28;20151;-69
2021/12/24 01:29:03;;;;;;;33.17;6.35;;;21.70;45.80;;;;;;5089029;28;20075;-70
2021/12/24 01:44:59;;;;;;;30.15;5.50;;;21.40;58.60;;;;;;5090143;28;20069;-59
2021/12/24 01:47:26;;;;;;;32.97;5.72;;;21.80;61.30;;;;;;5105295;28;20464;-61
2021/12/24 01:49:53;;;;;;;31.08;5.80;;;21.30;65.60;;;;;;5051183;28;20091;-62
2021/12/24 01:52:19;;;;;;;25.27;5.40;;;21.70;60.30;;;;;;5051740;28;20600;-61
2021/12/24 01:54:46;;;;;;;25.77;4.82;;;21.40;43.20;;;;;;5068733;28;20090;-61
2021/12/24 01:57:13;;;;;;;32.17;5.10;;;21.10;45.30;;;;;;5068417;28;20136;-62
2021/12/24 01:59:41;;;;;;;26.92;4.88;;;21.10;71.90;;;;;;5068413;28;20068;-61
2021/12/24 02:02:09;;;;;;;35.08;6.35;;;21.50;68.50;;;;;;5068046;28;20083;-61
2021/12/24 02:04:35;;;;;;;30.38;7.53;;;;;;;;;;5068592;28;20055;-62
2021/12/24 02:07:02;;;;;;;49.47;9.15;;;21.50;73.20;;;;;;5068681;28;20066;-62
2021/12/24 02:09:29;;;;;;;37.55;7.50;;;;;;;;;;5067056;28;20126;-62
2021/12/24 02:11:57;;;;;;;29.63;6.63;;;21.10;45.60;;;;;;5051871;28;20465;-61
2021/12/24 02:14:32;;;;;;;33.92;6.78;;;21.10;62.20;;;;;;5050769;28;20044;-61
2021/12/24 02:28:22;;;;;;;58.40;9.05;;;21.00;46.50;;;;;;5069383;28;20546;-62
2021/12/24 02:30:43;;;;;;;33.42;8.00;;;21.00;46.30;;;;;;5068773;28;20111;-62
2021/12/24 02:33:10;;;;;;;49.85;8.65;;;21.00;46.90;;;;;;5069389;28;20087;-61
2021/12/24 02:35:36;;;;;;;43.50;8.90;;;20.80;66.50;;;;;;5068438;28;20552;-62
2021/12/24 02:38:05;;;;;;;50.33;8.43;;;21.10;47.00;;;;;;5089059;28;20080;-61
2021/12/24 02:40:32;;;;;;;46.30;8.85;;;21.00;46.80;;;;;;5072112;28;20492;-62
2021/12/24 02:42:59;;;;;;;35.63;7.72;;;21.10;46.90;;;;;;5071680;28;20080;-62
2021/12/24 02:45:30;;;;;;;36.63;7.63;;;21.00;46.60;;;;;;5055336;28;20080;-62
2021/12/24 02:56:05;;;;;;;42.28;6.82;;;21.00;47.30;;;;;;5073087;28;20083;-61
2021/12/24 02:58:39;;;;;;;31.10;6.68;;;21.00;47.10;;;;;;5054638;28;20072;-57
2021/12/24 03:01:06;;;;;;;41.58;7.93;;;20.90;47.10;;;;;;5072796;28;20155;-61
2021/12/24 03:03:32;;;;;;;31.85;7.90;;;20.90;47.00;;;;;;5071503;28;20129;-61
2021/12/24 03:05:59;;;;;;;47.28;9.30;;;20.90;47.20;;;;;;5054629;28;20102;-61
2021/12/24 03:08:26;;;;;;;54.78;8.70;;;21.20;63.50;;;;;;5069804;28;20079;-61
2021/12/24 03:10:54;;;;;;;50.30;8.57;;;21.10;71.70;;;;;;5052954;28;20193;-61
2021/12/24 03:13:22;;;;;;;40.28;7.97;;;20.80;47.60;;;;;;5078627;28;20178;-60
2021/12/24 03:15:51;;;;;;;32.28;6.43;;;20.80;47.60;;;;;;5061716;28;20106;-62
2021/12/24 03:18:26;;;;;;;33.83;6.35;;;21.00;70.80;;;;;;5055086;28;20098;-60
2021/12/24 03:23:43;;;;;;;38.40;5.95;;;20.70;48.10;;;;;;5071040;28;20115;-60
2021/12/24 03:26:15;;;;;;;35.13;5.28;;;21.00;70.00;;;;;;5073395;28;20064;-60
2021/12/24 03:28:42;;;;;;;37.88;4.95;;;20.70;48.40;;;;;;5071972;28;20451;-64
2021/12/24 03:31:09;;;;;;;35.10;5.15;;;20.70;48.70;;;;;;5070775;28;20162;-61
2021/12/24 03:33:36;;;;;;;40.75;5.97;;;20.70;48.40;;;;;;5071280;28;20075;-59
2021/12/24 03:36:08;;;;;;;32.58;6.43;;;20.50;71.00;;;;;;5069604;28;20450;-61
2021/12/24 03:38:35;;;;;;;24.90;4.00;;;20.40;69.20;;;;;;5070923;28;20069;-61
2021/12/24 03:41:02;;;;;;;15.77;3.28;;;20.80;71.60;;;;;;5053251;28;20117;-60
2021/12/24 03:43:28;;;;;;;11.68;3.30;;;20.70;49.00;;;;;;5070476;28;20093;-62
2021/12/24 03:46:00;;;;;;;8.07;3.40;;;20.40;72.70;;;;;;5073429;28;20087;-62
2021/12/24 03:48:47;;;;;;;12.75;3.55;;;20.80;72.20;;;;;;5102041;28;20106;-62
2021/12/24 03:56:36;;;;;;;13.57;2.92;;;20.70;49.70;;;;;;5069958;28;20148;-62
2021/12/24 03:59:04;;;;;;;10.05;2.83;;;20.70;50.00;;;;;;5082062;28;20067;-62
2021/12/24 04:01:32;;;;;;;13.65;3.10;;;20.70;50.00;;;;;;5095034;28;20166;-60
2021/12/24 04:03:58;;;;;;;11.25;3.30;;;20.70;50.10;;;;;;5074310;28;20096;-62
2021/12/24 04:06:25;;;;;;;15.65;4.70;;;20.60;50.40;;;;;;5070982;28;20079;-61
2021/12/24 04:08:52;;;;;;;16.48;5.10;;;20.60;50.10;;;;;;5054381;28;20099;-61
2021/12/24 04:11:18;;;;;;;26.92;6.70;;;20.20;71.60;;;;;;5071763;28;20541;-62
2021/12/24 04:13:45;;;;;;;24.02;8.20;;;20.50;50.40;;;;;;5072728;28;20489;-63
2021/12/24 04:16:12;;;;;;;31.63;8.93;;;20.50;50.20;;;;;;5087727;28;20579;-63
2021/12/24 04:18:57;;;;;;;30.83;7.93;;;20.50;49.60;;;;;;5088660;28;20071;-61
2021/12/24 04:26:52;;;;;;;18.42;5.53;;;20.20;70.00;;;;;;5070790;28;20145;-61
2021/12/24 04:29:19;;;;;;;32.03;6.65;;;20.60;70.50;;;;;;5069912;28;20072;-63
2021/12/24 04:32:08;;;;;;;33.80;5.68;;;20.70;71.10;;;;;;5081930;28;20074;-60
2021/12/24 04:34:34;;;;;;;37.08;7.28;;;19.80;68.70;;;;;;5061271;28;20067;-63
2021/12/24 05:01:32;;;;;;;38.58;8.70;;;;;;;;;;5070846;28;20139;-61
2021/12/24 05:04:02;;;;;;;42.28;8.60;;;20.10;76.20;;;;;;5071104;28;20094;-62
2021/12/24 05:06:34;;;;;;;37.38;8.38;;;20.20;78.40;;;;;;5070099;28;20501;-61
2021/12/24 05:09:08;;;;;;;30.17;7.90;;;20.20;78.10;;;;;;5069606;28;20514;-61
2021/12/24 05:11:34;;;;;;;30.25;6.90;;;20.40;72.00;;;;;;5070095;28;20067;-61
2021/12/24 05:14:01;;;;;;;38.45;6.35;;;19.80;80.50;;;;;;5070570;28;20467;-63
2021/12/24 05:16:40;;;;;;;28.55;7.03;;;19.70;75.30;;;;;;5071110;28;20087;-61
2021/12/24 05:21:54;;;;;;;38.83;8.52;;;19.60;76.00;;;;;;5070841;28;20071;-60
2021/12/24 05:24:23;;;;;;;33.35;9.43;;;19.60;77.80;;;;;;5071236;28;20047;-61
2021/12/24 05:26:55;;;;;;;31.50;8.85;;;20.30;76.10;;;;;;5069524;28;20066;-63
2021/12/24 05:29:22;;;;;;;28.10;7.72;;;19.40;78.00;;;;;;5054105;28;20096;-61
2021/12/24 05:31:49;;;;;;;37.97;9.32;;;20.10;83.80;;;;;;5072136;28;20952;-61
2021/12/24 05:34:18;;;;;;;47.45;9.30;;;19.90;83.10;;;;;;5070220;28;20065;-60
2021/12/24 05:36:46;;;;;;;37.10;8.38;;;19.20;91.90;;;;;;5068479;28;20067;-62
2021/12/24 05:39:15;;;;;;;33.15;8.45;;;18.80;95.20;;;;;;5070976;28;20148;-62
2021/12/24 05:41:41;;;;;;;40.50;9.07;;;19.60;98.00;;;;;;5069467;28;20042;-62
2021/12/24 05:44:09;;;;;;;34.53;9.05;;;;;;;;;;5053552;28;20491;-60
2021/12/24 05:46:37;;;;;;;34.33;8.68;;;19.20;75.10;;;;;;5077423;28;20024;-61
2021/12/24 05:49:04;;;;;;;28.58;6.72;;;18.50;96.50;;;;;;5082841;28;20067;-61
2021/12/24 05:51:33;;;;;;;18.63;4.85;;;18.70;89.60;;;;;;5069532;28;20150;-61
2021/12/24 05:54:00;;;;;;;28.48;6.68;;;19.00;65.30;;;;;;5085500;28;20130;-62
2021/12/24 05:56:27;;;;;;;30.90;8.43;;;19.00;65.50;;;;;;5069102;28;20541;-62
2021/12/24 05:58:53;;;;;;;32.13;7.38;;;19.00;66.20;;;;;;5070217;28;20085;-62
2021/12/24 06:01:21;;;;;;;25.00;8.27;;;18.90;65.60;;;;;;5068945;28;20127;-62
2021/12/24 06:03:48;;;;;;;26.85;6.95;;;19.00;66.00;;;;;;5068273;28;20115;-62
2021/12/24 06:06:15;;;;;;;33.22;7.47;;;19.00;64.00;;;;;;5068199;28;20153;-61
2021/12/24 06:08:41;;;;;;;29.20;7.43;;;19.00;64.40;;;;;;5051900;28;20095;-62
2021/12/24 06:11:07;;;;;;;;;;;19.00;64.00;;;;;;5070263;28;20108;-64
2021/12/24 06:13:36;;;;;;;21.85;6.32;;;19.00;63.60;;;;;;5073415;28;19959;-62
2021/12/24 06:16:02;;;;;;;28.40;8.45;;;19.10;64.30;;;;;;5069910;28;20171;-62
2021/12/24 06:18:30;;;;;;;25.27;7.63;;;19.10;63.10;;;;;;5090152;28;20530;-62
2021/12/24 06:21:00;;;;;;;16.83;5.68;;;19.10;62.50;;;;;;5071862;28;20080;-61
2021/12/24 06:23:28;;;;;;;28.45;5.85;;;19.20;62.20;;;;;;5074284;28;20105;-62
2021/12/24 06:25:56;;;;;;;26.73;5.25;;;19.30;62.40;;;;;;5089195;28;20103;-63
2021/12/24 06:28:23;;;;;;;22.02;5.20;;;19.30;62.00;;;;;;5073369;28;20477;-63
2021/12/24 06:30:50;;;;;;;32.15;5.03;;;19.30;61.80;;;;;;5088807;28;20084;-62
2021/12/24 06:33:16;;;;;;;32.20;5.47;;;19.30;61.70;;;;;;5072001;28;20084;-63
2021/12/24 06:35:43;;;;;;;15.18;5.30;;;19.30;60.90;;;;;;5071928;28;20186;-63
2021/12/24 06:38:10;;;;;;;18.08;4.88;;;19.30;61.80;;;;;;5089164;28;20131;-62
2021/12/24 06:40:37;;;;;;;20.23;4.75;;;19.30;61.80;;;;;;5088922;28;20113;-63
2021/12/24 06:43:04;;;;;;;17.95;4.63;;;19.30;62.70;;;;;;5071818;28;20091;-61
2021/12/24 06:45:32;;;;;;;25.90;5.35;;;19.40;63.00;;;;;;5072704;28;20160;-63
2021/12/24 06:48:00;;;;;;;19.15;4.78;;;19.40;63.90;;;;;;5071763;28;20103;-63
2021/12/24 06:50:27;;;;;;;22.30;4.68;;;19.40;63.90;;;;;;5071425;28;20085;-60
2021/12/24 06:52:54;;;;;;;29.08;5.22;;;19.30;63.40;;;;;;5088639;28;20069;-62
2021/12/24 06:55:21;;;;;;;20.48;5.15;;;19.30;63.20;;;;;;5071804;28;20195;-62
2021/12/24 06:57:48;;;;;;;25.80;5.18;;;19.30;64.10;;;;;;5071623;28;20245;-63
2021/12/24 07:00:20;;;;;;;19.25;5.32;;;19.30;65.40;;;;;;5055143;28;20068;-63
2021/12/24 07:02:47;;;;;;;17.20;6.18;;;19.20;66.90;;;;;;5071625;28;20099;-63
2021/12/24 07:05:17;;;;;;;33.08;6.35;;;19.10;67.60;;;;;;5071420;28;20458;-63
2021/12/24 07:07:43;;;;;;;25.40;7.13;;;19.10;70.50;;;;;;5071686;28;20602;-63
2021/12/24 07:10:10;;;;;;;27.85;7.25;;;19.10;71.00;;;;;;5071277;28;20093;-62
2021/12/24 07:12:37;;;;;;;30.15;7.75;;;19.00;73.10;;;;;;5071024;28;20076;-63
2021/12/24 07:15:04;;;;;;;30.45;8.63;;;18.90;75.40;;;;;;5072317;28;20083;-63
2021/12/24 07:17:30;;;;;;;55.88;13.18;;;19.10;98.00;;;;;;5088011;28;20077;-63
2021/12/24 07:19:56;;;;;;;;;;;18.80;83.60;;;;;;5088646;28;20140;-62
2021/12/24 07:22:23;;;;;;;51.47;11.40;;;18.90;99.90;;;;;;5069868;28;20176;-64
2021/12/24 07:24:49;;;;;;;36.58;9.57;;;18.50;92.50;;;;;;5071378;28;20410;-63
2021/12/24 07:27:16;;;;;;;51.70;12.02;;;18.20;99.90;;;;;;5070988;28;20080;-62
2021/12/24 07:29:42;;;;;;;;;;;18.10;97.30;;;;;;5071429;28;20500;-64
2021/12/24 07:32:08;;;;;;;27.90;8.93;;;;;;;;;;5054134;28;19940;-63
2021/12/24 07:34:35;;;;;;;26.30;7.30;;;17.60;99.90;;;;;;5071429;28;20072;-63
2021/12/24 07:37:01;;;;;;;35.63;10.20;;;16.90;99.90;;;;;;5071290;28;20053;-64
2021/12/24 07:39:27;;;;;;;;;;;17.20;99.90;;;;;;5071606;28;20512;-62
2021/12/24 07:41:53;;;;;;;29.85;8.63;;;16.60;99.90;;;;;;5070730;28;20325;-61
2021/12/24 07:44:20;;;;;;;;;;;16.80;99.90;;;;;;5071626;28;20058;-63
2021/12/24 07:46:52;;;;;;;21.00;7.20;;;;;;;;;;5075615;28;19938;-64
2021/12/24 07:52:12;;;;;;;18.70;5.38;;;16.20;99.90;;;;;;5071807;28;20758;-64
2021/12/24 07:54:44;;;;;;;21.20;6.10;;;16.40;99.90;;;;;;5070452;28;20053;-63
2021/12/24 07:57:13;;;;;;;27.08;7.90;;;16.90;99.90;;;;;;5070225;28;20557;-64
2021/12/24 07:59:42;;;;;;;20.48;6.93;;;16.80;99.90;;;;;;5070538;28;20063;-64
2021/12/24 08:02:15;;;;;;;16.50;6.43;;;16.90;99.90;;;;;;5071481;28;20176;-65
2021/12/24 08:04:42;;;;;;;20.17;5.75;;;16.70;99.90;;;;;;5073875;28;20174;-63
2021/12/24 08:07:10;;;;;;;29.50;7.60;;;16.60;99.90;;;;;;5074161;28;20083;-65
2021/12/24 08:09:37;;;;;;;17.77;5.97;;;16.40;99.90;;;;;;5090744;28;20374;-64
2021/12/24 08:12:08;;;;;;;19.95;6.50;;;16.50;99.90;;;;;;5075700;28;20080;-64
2021/12/24 08:14:35;;;;;;;28.83;10.57;;;16.40;99.90;;;;;;5056334;28;20436;-64
2021/12/24 08:17:02;;;;;;;23.17;9.15;;;16.20;99.90;;;;;;5074335;28;20067;-64
2021/12/24 08:19:29;;;;;;;22.23;8.98;;;16.40;99.90;;;;;;5075343;28;20124;-65
2021/12/24 08:21:57;;;;;;;21.38;9.18;;;16.40;99.90;;;;;;5073953;28;20566;-64
2021/12/24 08:24:23;;;;;;;14.75;6.88;;;16.30;99.90;;;;;;5071580;28;20168;-65
2021/12/24 08:26:50;;;;;;;15.07;6.75;;;16.30;99.90;;;;;;5076771;28;20119;-63
2021/12/24 08:29:16;;;;;;;;;;;16.30;99.90;;;;;;5071354;28;20154;-63
2021/12/24 08:31:43;;;;;;;24.60;11.20;;;16.30;99.90;;;;;;5070426;28;19957;-65
2021/12/24 08:34:11;;;;;;;20.58;11.02;;;16.10;99.90;;;;;;5072264;28;20139;-63
2021/12/24 08:36:37;;;;;;;18.10;11.95;;;16.20;99.90;;;;;;5069187;28;20071;-63
2021/12/24 08:39:05;;;;;;;16.70;10.05;;;16.40;99.90;;;;;;5073341;28;20079;-62
2021/12/24 08:41:32;;;;;;;26.00;11.95;;;16.40;99.90;;;;;;5054153;28;20193;-62
2021/12/24 08:43:58;;;;;;;;;;;16.40;99.90;;;;;;5056790;28;20063;-61
2021/12/24 08:46:24;;;;;;;23.92;11.73;;;16.70;99.90;;;;;;5071917;28;20039;-63
2021/12/24 08:48:50;;;;;;;;;;;16.30;99.90;;;;;;5074545;28;20442;-64
2021/12/24 08:51:16;;;;;;;18.83;7.20;;;16.40;99.90;;;;;;5070948;28;19949;-63
2021/12/24 08:53:43;;;;;;;14.45;5.93;;;;;;;;;;5070573;28;20484;-63
2021/12/24 08:56:10;;;;;;;12.82;4.82;;;;;;;;;;5075012;28;20487;-63
2021/12/24 08:58:37;;;;;;;15.30;4.55;;;16.20;99.90;;;;;;5073534;28;20440;-64
2021/12/24 09:01:05;;;;;;;14.30;5.15;;;16.00;99.90;;;;;;5055551;28;20161;-63
2021/12/24 09:03:32;;;;;;;15.80;6.32;;;16.10;99.90;;;;;;5071861;28;20086;-64
2021/12/24 09:05:59;;;;;;;15.85;5.68;;;16.00;99.90;;;;;;5071315;28;20069;-63
2021/12/24 09:08:25;;;;;;;12.60;5.53;;;16.00;99.90;;;;;;5073327;28;20104;-64
2021/12/24 09:10:52;;;;;;;14.77;6.82;;;16.00;99.90;;;;;;5056290;28;20105;-62
2021/12/24 09:13:18;;;;;;;;;;;15.90;99.90;;;;;;5088056;28;20658;-64
2021/12/24 09:15:44;;;;;;;15.30;5.28;;;15.90;99.90;;;;;;5076727;28;20047;-64
2021/12/24 09:18:11;;;;;;;18.92;6.75;;;16.00;99.90;;;;;;5074078;28;20084;-61
2021/12/24 09:20:41;;;;;;;;;;;15.90;99.90;;;;;;5043227;28;20103;-64
2021/12/24 09:23:09;;;;;;;16.55;5.85;;;15.90;99.90;;;;;;5068872;28;19973;-61
2021/12/24 09:25:36;;;;;;;17.17;5.97;;;15.90;99.90;;;;;;5071977;28;20069;-62
2021/12/24 09:28:04;;;;;;;18.40;6.70;;;15.90;99.90;;;;;;5074033;28;20084;-62
2021/12/24 09:30:32;;;;;;;19.42;5.65;;;15.90;99.90;;;;;;5072751;28;20087;-63
2021/12/24 09:32:58;;;;;;;14.82;5.20;;;15.80;99.90;;;;;;5069906;28;20083;-62
2021/12/24 09:35:26;;;;;;;;;;;15.80;99.90;;;;;;5072475;28;20097;-61
2021/12/24 09:37:54;;;;;;;18.83;5.28;;;15.70;99.90;;;;;;5075426;28;19956;-62
2021/12/24 09:40:21;;;;;;;15.18;5.75;;;15.70;99.90;;;;;;5072111;28;20080;-61
2021/12/24 09:42:48;;;;;;;20.17;5.47;;;15.70;99.90;;;;;;5087909;28;20096;-61
2021/12/24 09:45:15;;;;;;;18.52;5.60;;;15.80;99.90;;;;;;5087363;28;20114;-62
2021/12/24 09:47:42;;;;;;;14.32;5.97;;;15.60;99.90;;;;;;5057973;28;20072;-62
2021/12/24 09:50:12;;;;;;;18.63;5.75;;;15.50;99.90;;;;;;5073419;28;20100;-62
2021/12/24 09:52:41;;;;;;;21.20;5.75;;;15.50;99.90;;;;;;5067380;28;20518;-63
2021/12/24 09:55:16;;;;;;;23.08;6.07;;;15.40;99.90;;;;;;5070514;28;20492;-63
2021/12/24 09:57:43;;;;;;;19.38;5.22;;;15.50;99.90;;;;;;5068468;28;20462;-62
2021/12/24 10:00:12;;;;;;;19.15;6.25;;;15.50;99.90;;;;;;5074285;28;20130;-63
2021/12/24 10:02:45;;;;;;;21.35;6.10;;;15.40;99.90;;;;;;5072047;28;20092;-62
2021/12/24 10:05:32;;;;;;;23.25;6.05;;;15.50;99.90;;;;;;5072058;28;20118;-63
2021/12/24 10:08:00;;;;;;;18.05;4.82;;;15.40;99.90;;;;;;5088334;28;20547;-64
2021/12/24 10:10:29;;;;;;;17.05;5.22;;;15.50;99.90;;;;;;5074278;28;20135;-63
2021/12/24 10:13:16;;;;;;;12.40;5.45;;;15.50;99.90;;;;;;5072642;28;20075;-64
2021/12/24 10:15:58;;;;;;;18.98;5.35;;;15.50;99.90;;;;;;5071382;28;20128;-64
2021/12/24 10:18:39;;;;;;;15.43;4.97;;;15.50;99.90;;;;;;5057116;28;20523;-62
2021/12/24 10:21:19;;;;;;;21.05;5.15;;;15.60;99.90;;;;;;5057108;28;20550;-62
2021/12/24 10:23:51;;;;;;;11.40;4.63;;;15.60;99.90;;;;;;5071889;28;20087;-62
2021/12/24 10:26:35;;;;;;;20.02;4.82;;;15.60;99.90;;;;;;5075274;28;20075;-63
2021/12/24 10:29:10;;;;;;;15.90;4.38;;;15.60;99.90;;;;;;5052917;28;20069;-63
2021/12/24 10:31:52;;;;;;;17.05;6.22;;;15.60;99.90;;;;;;5071346;28;20093;-63
2021/12/24 10:34:32;;;;;;;17.58;7.32;;;15.60;99.90;;;;;;5067290;28;20076;-64
2021/12/24 10:37:09;;;;;;;30.88;7.95;;;15.60;99.90;;;;;;5072764;28;20222;-64
2021/12/24 10:39:40;;;;;;;17.80;6.03;;;15.60;99.90;;;;;;5071059;28;20127;-62
2021/12/24 10:42:31;;;;;;;14.00;5.32;;;15.60;99.90;;;;;;5072197;28;20076;-63
2021/12/24 10:45:00;;;;;;;15.20;4.63;;;15.50;99.90;;;;;;5064140;28;20137;-62
2021/12/24 10:47:29;;;;;;;20.50;4.22;;;15.50;99.90;;;;;;5072849;28;20077;-64
2021/12/24 10:55:26;;;;;;;14.10;3.85;;;15.40;99.90;;;;;;5072049;28;20102;-62
2021/12/24 10:57:55;;;;;;;19.23;4.03;;;15.40;99.90;;;;;;5074972;28;20080;-62
2021/12/24 11:00:24;;;;;;;18.20;3.70;;;15.40;99.90;;;;;;5075782;28;20077;-64
2021/12/24 11:02:59;;;;;;;18.90;3.60;;;15.40;99.90;;;;;;5076612;28;20092;-61
2021/12/24 11:05:27;;;;;;;12.48;3.75;;;15.40;99.90;;;;;;5089379;28;20072;-64
2021/12/24 11:07:54;;;;;;;18.30;3.65;;;15.40;99.90;;;;;;5075041;28;20069;-65
2021/12/24 11:10:22;;;;;;;;;;;15.40;99.90;;;;;;5093476;28;20174;-64
2021/12/24 11:12:55;;;;;;;16.35;3.75;;;15.40;99.90;;;;;;5074377;28;20040;-63
2021/12/24 11:15:23;;;;;;;18.52;4.63;;;15.40;99.90;;;;;;5070140;28;20069;-64
2021/12/24 11:17:53;;;;;;;19.20;4.57;;;15.40;99.90;;;;;;5078591;28;20154;-63
2021/12/24 11:20:20;;;;;;;16.52;4.53;;;15.40;99.90;;;;;;5059497;28;20080;-63
2021/12/24 11:22:55;;;;;;;22.30;5.03;;;15.30;99.90;;;;;;5074653;28;20182;-64
2021/12/24 11:25:23;;;;;;;17.23;6.32;;;15.30;99.90;;;;;;5075562;28;20072;-63
2021/12/24 11:27:50;;;;;;;26.90;6.50;;;15.30;99.90;;;;;;5076018;28;20078;-63
2021/12/24 11:30:17;;;;;;;25.38;8.88;;;15.20;99.90;;;;;;5059496;28;20073;-62
2021/12/24 11:32:45;;;;;;;21.52;9.25;;;15.20;99.90;;;;;;5036255;28;20087;-63
2021/12/24 11:35:14;;;;;;;26.65;10.60;;;15.10;99.90;;;;;;5060811;28;20077;-63
2021/12/24 11:37:44;;;;;;;27.15;13.35;;;15.10;99.90;;;;;;5075493;28;20130;-63
2021/12/24 11:40:17;;;;;;;25.20;11.35;;;15.00;99.90;;;;;;5074616;28;20103;-64
2021/12/24 11:42:50;;;;;;;25.75;11.60;;;15.00;99.90;;;;;;5091771;28;20442;-63
2021/12/24 11:45:18;;;;;;;30.92;12.80;;;15.00;99.90;;;;;;5076579;28;20648;-63
2021/12/24 11:47:45;;;;;;;18.95;7.90;;;15.00;99.90;;;;;;5059798;28;20131;-63
2021/12/24 11:50:12;;;;;;;21.65;8.93;;;15.00;99.90;;;;;;5076830;28;20136;-62
2021/12/24 11:52:40;;;;;;;;;;;15.00;99.90;;;;;;5093095;28;20076;-61
2021/12/24 11:55:07;;;;;;;14.82;6.72;;;15.00;99.90;;;;;;5075207;28;20472;-63
2021/12/24 11:57:33;;;;;;;27.17;9.57;;;15.00;99.90;;;;;;5074555;28;20081;-64
2021/12/24 12:00:09;;;;;;;;;;;15.00;99.90;;;;;;5093824;28;20072;-62
2021/12/24 12:02:41;;;;;;;18.60;10.70;;;15.00;99.90;;;;;;5073573;28;20435;-62
2021/12/24 12:05:27;;;;;;;24.80;10.75;;;15.00;99.90;;;;;;5070081;28;20146;-62
2021/12/24 12:08:25;;;;;;;11.55;7.05;;;15.00;99.90;;;;;;5089197;28;20100;-62
2021/12/24 12:10:59;;;;;;;;;;;14.90;99.90;;;;;;5069561;28;20118;-62
2021/12/24 12:13:38;;;;;;;12.07;6.68;;;14.90;99.90;;;;;;5074303;28;19979;-63
2021/12/24 12:16:08;;;;;;;11.48;6.82;;;14.90;99.90;;;;;;5068134;28;20104;-64
2021/12/24 12:18:44;;;;;;;16.02;7.28;;;14.90;99.90;;;;;;5058095;28;20077;-63
2021/12/24 12:21:35;;;;;;;14.82;6.28;;;14.90;99.90;;;;;;5090376;28;20079;-63
2021/12/24 12:26:41;;;;;;;9.50;6.07;;;15.00;99.90;;;;;;5075145;28;20194;-64
2021/12/24 12:29:30;;;;;;;12.48;5.18;;;15.10;99.90;;;;;;5074261;28;20072;-63
2021/12/24 12:32:17;;;;;;;9.30;5.65;;;15.10;99.90;;;;;;5072320;28;20077;-63
2021/12/24 12:34:43;;;;;;;12.05;6.05;;;15.10;99.90;;;;;;5068794;28;20123;-63
2021/12/24 12:37:19;;;;;;;12.95;5.25;;;15.20;99.90;;;;;;5073933;28;20497;-64
2021/12/24 12:39:55;;;;;;;15.20;4.82;;;15.20;99.90;;;;;;5074447;28;20069;-64
2021/12/24 12:42:24;;;;;;;7.80;5.00;;;15.20;99.90;;;;;;5072675;28;20068;-62
2021/12/24 12:44:54;;;;;;;10.13;5.10;;;15.20;99.90;;;;;;5071579;28;20105;-64
2021/12/24 12:47:24;;;;;;;11.20;5.20;;;15.30;99.90;;;;;;5072604;28;20156;-63
2021/12/24 12:50:17;;;;;;;15.90;5.15;;;15.30;99.90;;;;;;5076061;28;20089;-62
2021/12/24 12:52:44;;;;;;;10.52;4.90;;;15.30;99.90;;;;;;5090062;28;20195;-63
2021/12/24 12:55:30;;;;;;;17.20;5.10;;;15.40;99.90;;;;;;5073359;28;20081;-64
2021/12/24 12:58:32;;;;;;;8.85;4.47;;;15.40;99.90;;;;;;5072688;28;20076;-63
2021/12/24 13:01:16;;;;;;;9.95;4.85;;;15.40;99.90;;;;;;4999717;28;20180;-63
2021/12/24 13:03:58;;;;;;;12.57;5.60;;;15.40;99.90;;;;;;5001631;28;20102;-63
2021/12/24 13:06:38;;;;;;;11.85;5.72;;;15.50;99.90;;;;;;4998841;28;20071;-62
2021/12/24 13:09:11;;;;;;;10.50;4.93;;;15.50;99.90;;;;;;4997142;28;20599;-62
2021/12/24 13:11:41;;;;;;;10.77;4.50;;;15.50;99.90;;;;;;5014096;28;20575;-63
2021/12/24 13:14:08;;;;;;;8.98;4.15;;;15.50;99.90;;;;;;5014778;28;20070;-64
2021/12/24 13:16:46;;;;;;;10.10;3.97;;;15.50;99.90;;;;;;4996403;28;20085;-63
2021/12/24 13:24:52;;;;;;;8.20;3.90;;;15.60;99.90;;;;;;5001621;28;20757;-63
2021/12/24 13:27:23;;;;;;;8.20;4.68;;;15.60;99.90;;;;;;5014349;28;20090;-62
2021/12/24 13:30:06;;;;;;;10.25;4.57;;;15.70;99.90;;;;;;4998502;28;20164;-64
2021/12/24 13:32:45;;;;;;;10.27;4.38;;;15.70;99.90;;;;;;5001992;28;20073;-63
2021/12/24 13:35:13;;;;;;;11.27;5.38;;;15.70;99.90;;;;;;5039284;28;20092;-64
2021/12/24 13:37:45;;;;;;;10.25;5.50;;;15.70;99.90;;;;;;5070458;28;20076;-64
2021/12/24 13:40:13;;;;;;;12.13;6.35;;;15.60;99.90;;;;;;5072351;28;20127;-63
2021/12/24 13:42:55;;;;;;;10.32;5.30;;;15.70;99.90;;;;;;5070286;28;20103;-63
2021/12/24 13:45:23;;;;;;;10.27;5.32;;;15.60;99.90;;;;;;5072179;28;20427;-64
2021/12/24 13:56:14;;;;;;;12.45;5.15;;;15.60;99.90;;;;;;5061394;28;20387;-63
2021/12/24 13:58:48;;;;;;;14.30;5.47;;;15.50;99.90;;;;;;5074907;28;20115;-63
2021/12/24 14:01:14;;;;;;;8.68;5.13;;;15.50;99.90;;;;;;5074548;28;20248;-63
2021/12/24 14:03:41;;;;;;;14.20;5.65;;;15.50;99.90;;;;;;5056531;28;20107;-62
2021/12/24 14:06:07;;;;;;;;;;;15.50;99.90;;;;;;5074550;28;20163;-64
2021/12/24 14:08:36;;;;;;;15.48;5.85;;;15.40;99.90;;;;;;5087753;28;19957;-63
2021/12/24 14:11:08;;;;;;;15.20;4.90;;;15.50;99.90;;;;;;5051394;28;20105;-63
2021/12/24 14:13:40;;;;;;;13.75;5.72;;;15.40;99.90;;;;;;5087166;28;20085;-63
2021/12/24 14:24:13;;;;;;;13.20;5.63;;;15.50;99.90;;;;;;5071595;28;20096;-63
2021/12/24 14:26:44;;;;;;;14.05;5.65;;;15.40;99.90;;;;;;5074173;28;20065;-63
2021/12/24 14:29:11;;;;;;;16.27;6.40;;;15.40;99.90;;;;;;5073777;28;20101;-63
2021/12/24 14:31:50;;;;;;;21.02;6.90;;;15.40;99.90;;;;;;5074177;28;20077;-63
2021/12/24 14:34:39;;;;;;;20.02;7.32;;;15.40;99.90;;;;;;5070037;28;20112;-63
2021/12/24 14:37:10;;;;;;;22.00;8.68;;;15.40;99.90;;;;;;5075346;28;20079;-63
2021/12/24 14:39:45;;;;;;;21.58;12.10;;;15.30;99.90;;;;;;5076198;28;20528;-63
2021/12/24 14:42:35;;;;;;;17.98;8.70;;;15.40;99.90;;;;;;5090169;28;20127;-63
2021/12/24 14:45:47;;;;;;;20.27;7.90;;;15.30;99.90;;;;;;5073818;28;20117;-64
2021/12/24 14:48:29;;;;;;;16.15;7.38;;;15.30;99.90;;;;;;5071073;28;20226;-63
2021/12/24 14:50:58;;;;;;;17.75;7.75;;;15.30;99.90;;;;;;5058635;28;20088;-61
2021/12/24 14:53:42;;;;;;;22.48;8.23;;;15.20;99.90;;;;;;5058983;28;20572;-62
2021/12/24 14:56:15;;;;;;;22.35;7.97;;;15.30;99.90;;;;;;5091773;28;20079;-61
2021/12/24 14:58:48;;;;;;;19.42;8.93;;;15.20;99.90;;;;;;5071067;28;20528;-61
2021/12/24 15:01:19;;;;;;;22.52;7.97;;;15.20;99.90;;;;;;5057009;28;20089;-63